Terminal Aerodrome Forecast
Issued by NWS Bismarck, ND

Home | Current Version | Previous Version | Graphics & Text | Print | Product List | Glossary On
Versions: 1 2 3 4 5 6 7 8 9 10 11 12 13 14 15 16 17 18 19
000
FTUS43 KBIS 180300 AAA
TAFBIS
TAF AMD
KBIS 180341Z 1804/1824 VRB03KT P6SM SCT100 BKN250
     FM180600 30004KT P6SM SCT100
     FM181500 31012G20KT P6SM BKN060=

USA.gov is the U.S. government's official web portal to all federal, state and local government web resources and services.